Time;durP1;ratioP1;P1;durP2;ratioP2;P2;SDS_P1;SDS_P2;PMS_P1;PMS_P2;Temp;Humidity;BMP_temperature;BMP_pressure;BME280_temperature;BME280_humidity;BME280_pressure;Samples;Min_cycle;Max_cycle;Signal;HPM_P1;HPM_P2
2023/07/02 00:00:54;;;;;;;;;;;;;;;23.27;100.00;98383.41;105973;1253;72441;-75
2023/07/02 00:03:24;;;;;;;;;;;;;;;23.36;100.00;98383.23;109525;1252;60441;-77
2023/07/02 00:05:54;;;;;;;;;;;;;;;22.90;100.00;98381.98;108517;1254;61381;-78
2023/07/02 00:08:22;;;;;;;;;;;;;;;23.02;100.00;98386.83;105927;1257;73403;-77
2023/07/02 00:10:49;;;;;;;;;;;;;;;22.48;100.00;98380.88;105865;1253;68290;-77
2023/07/02 00:13:17;;;;;;;;;;;;;;;22.75;100.00;98379.29;105855;1253;72657;-77
2023/07/02 00:15:45;;;;;;;;;;;;;;;22.65;100.00;98375.66;105939;1251;61372;-76
2023/07/02 00:18:16;;;;;;;;;;;;;;;22.74;100.00;98378.80;105836;1252;61289;-75
2023/07/02 00:20:43;;;;;;;;;;;;;;;22.55;100.00;98376.02;106060;1256;74550;-75
2023/07/02 00:23:11;;;;;;;;;;;;;;;22.58;100.00;98373.29;105744;1253;67580;-76
2023/07/02 00:25:38;;;;;;;;;;;;;;;22.98;100.00;98378.45;105827;1257;72013;-76
2023/07/02 00:28:06;;;;;;;;;;;;;;;23.10;100.00;98377.58;105847;1253;61285;-77
2023/07/02 00:30:33;;;;;;;;;;;;;;;22.22;100.00;98373.25;106001;1251;61327;-75
2023/07/02 00:33:01;;;;;;;;;;;;;;;21.26;100.00;98372.27;106123;1251;73442;-76
2023/07/02 00:35:28;;;;;;;;;;;;;;;21.85;100.00;98375.46;106142;1251;66921;-78
2023/07/02 00:37:56;;;;;;;;;;;;;;;21.97;100.00;98377.98;105936;1257;71148;-79
2023/07/02 00:40:24;;;;;;;;;;;;;;;22.06;100.00;98380.16;105845;1257;61585;-74
2023/07/02 00:42:51;;;;;;;;;;;;;;;22.08;100.00;98384.33;105798;1254;61522;-77
2023/07/02 00:45:18;;;;;;;;;;;;;;;21.11;100.00;98381.35;105800;1254;74564;-75
2023/07/02 00:47:46;;;;;;;;;;;;;;;21.57;100.00;98378.33;105830;1254;69277;-75
2023/07/02 00:50:13;;;;;;;;;;;;;;;22.26;100.00;98381.55;105792;1254;73099;-75
2023/07/02 00:52:41;;;;;;;;;;;;;;;22.46;100.00;98378.68;105817;1254;61306;-74
2023/07/02 00:55:08;;;;;;;;;;;;;;;22.79;100.00;98383.25;105800;1254;61381;-75
2023/07/02 00:57:36;;;;;;;;;;;;;;;23.13;100.00;98386.92;105840;1260;74491;-75
2023/07/02 01:00:03;;;;;;;;;;;;;;;23.30;100.00;98388.30;105800;1254;67423;-77
2023/07/02 01:02:31;;;;;;;;;;;;;;;23.35;100.00;98390.27;105816;1254;72582;-77
2023/07/02 01:04:59;;;;;;;;;;;;;;;23.57;100.00;98393.58;105802;1253;61312;-76
2023/07/02 01:07:29;;;;;;;;;;;;;;;23.69;100.00;98386.46;105811;1254;61907;-79
2023/07/02 01:09:56;;;;;;;;;;;;;;;23.81;100.00;98379.08;105968;1251;74012;-80
2023/07/02 01:12:24;;;;;;;;;;;;;;;23.74;100.00;98380.91;106097;1251;68476;-80
2023/07/02 01:14:52;;;;;;;;;;;;;;;23.91;100.00;98378.81;106090;1253;71459;-80
2023/07/02 01:17:19;;;;;;;;;;;;;;;24.10;100.00;98381.02;106130;1254;61647;-79
2023/07/02 01:19:53;;;;;;;;;;;;;;;24.08;100.00;98375.29;106138;1252;61384;-74
2023/07/02 01:22:24;;;;;;;;;;;;;;;23.78;100.00;98368.61;106002;1257;74625;-76
2023/07/02 01:24:52;;;;;;;;;;;;;;;23.61;100.00;98374.54;105832;1257;68269;-76
2023/07/02 01:27:20;;;;;;;;;;;;;;;23.67;100.00;98369.23;105863;1257;71916;-75
2023/07/02 01:29:50;;;;;;;;;;;;;;;23.77;100.00;98363.98;106040;1253;61224;-74
2023/07/02 01:32:18;;;;;;;;;;;;;;;23.79;100.00;98357.14;105862;1253;61332;-74
2023/07/02 01:34:48;;;;;;;;;;;;;;;23.64;100.00;98357.60;106000;1255;73344;-74
2023/07/02 01:37:16;;;;;;;;;;;;;;;23.49;100.00;98359.73;105917;1253;68357;-74
2023/07/02 01:39:44;;;;;;;;;;;;;;;23.65;100.00;98357.31;105983;1253;72735;-75
2023/07/02 01:42:12;;;;;;;;;;;;;;;23.72;100.00;98354.82;106049;1256;61337;-75
2023/07/02 01:44:39;;;;;;;;;;;;;;;23.76;100.00;98357.55;105821;1256;61186;-75
2023/07/02 01:47:07;;;;;;;;;;;;;;;23.93;100.00;98355.52;105871;1253;73851;-74
2023/07/02 01:49:36;;;;;;;;;;;;;;;23.96;100.00;98358.15;106061;1253;68695;-78
2023/07/02 01:52:03;;;;;;;;;;;;;;;23.79;100.00;98358.92;105998;1256;72232;-74
2023/07/02 01:54:32;;;;;;;;;;;;;;;23.88;100.00;98361.25;105872;1257;61295;-73
2023/07/02 01:57:00;;;;;;;;;;;;;;;23.83;100.00;98361.80;105875;1257;61298;-74
2023/07/02 01:59:28;;;;;;;;;;;;;;;23.69;100.00;98361.12;105861;1253;73420;-73
2023/07/02 02:01:56;;;;;;;;;;;;;;;23.72;100.00;98360.54;105859;1255;67102;-74
2023/07/02 02:04:23;;;;;;;;;;;;;;;23.69;100.00;98362.29;105878;1253;72626;-73
2023/07/02 02:06:52;;;;;;;;;;;;;;;23.79;100.00;98359.63;105879;1253;61241;-74
2023/07/02 02:09:19;;;;;;;;;;;;;;;23.68;100.00;98357.34;105786;1255;61691;-75
2023/07/02 02:11:48;;;;;;;;;;;;;;;23.68;100.00;98353.53;105813;1260;73826;-76
2023/07/02 02:14:16;;;;;;;;;;;;;;;23.64;100.00;98350.32;105675;1263;67229;-78
2023/07/02 02:16:46;;;;;;;;;;;;;;;23.91;100.00;98352.67;105784;1256;72681;-75
2023/07/02 02:19:14;;;;;;;;;;;;;;;24.03;100.00;98357.91;105792;1254;61546;-75
2023/07/02 02:21:42;;;;;;;;;;;;;;;24.03;100.00;98360.10;105775;1254;61276;-75
2023/07/02 02:24:10;;;;;;;;;;;;;;;23.85;100.00;98360.27;105795;1259;76558;-74
2023/07/02 02:26:38;;;;;;;;;;;;;;;23.97;100.00;98361.98;105767;1260;66742;-74
2023/07/02 02:29:05;;;;;;;;;;;;;;;23.96;100.00;98364.70;105407;1263;71880;-73
2023/07/02 02:31:32;;;;;;;;;;;;;;;24.16;100.00;98365.75;105711;1254;61301;-74
2023/07/02 02:34:00;;;;;;;;;;;;;;;24.09;100.00;98365.81;105786;1254;61232;-75
2023/07/02 02:36:28;;;;;;;;;;;;;;;24.06;100.00;98365.94;105716;1254;73485;-76
2023/07/02 02:38:56;;;;;;;;;;;;;;;24.07;100.00;98365.02;105648;1261;67466;-75
2023/07/02 02:41:24;;;;;;;;;;;;;;;23.88;100.00;98365.17;105862;1257;71449;-74
2023/07/02 02:43:52;;;;;;;;;;;;;;;23.93;100.00;98362.95;106020;1256;61224;-74
2023/07/02 02:46:23;;;;;;;;;;;;;;;23.72;100.00;98362.98;105868;1253;61218;-76
2023/07/02 02:48:51;;;;;;;;;;;;;;;23.83;100.00;98357.98;105841;1253;73375;-74
2023/07/02 02:51:19;;;;;;;;;;;;;;;23.82;100.00;98357.95;105826;1253;68325;-74
2023/07/02 02:53:46;;;;;;;;;;;;;;;23.68;100.00;98356.55;105883;1253;71870;-75
2023/07/02 02:56:14;;;;;;;;;;;;;;;23.92;100.00;98351.98;105810;1253;61618;-74
2023/07/02 02:58:41;;;;;;;;;;;;;;;24.05;100.00;98351.04;105846;1253;61244;-76
2023/07/02 03:01:10;;;;;;;;;;;;;;;24.14;100.00;98347.70;105838;1253;74462;-75
2023/07/02 03:03:39;;;;;;;;;;;;;;;23.93;100.00;98346.05;105918;1257;67245;-75
2023/07/02 03:06:06;;;;;;;;;;;;;;;24.09;100.00;98348.20;105871;1258;72562;-75
2023/07/02 03:08:34;;;;;;;;;;;;;;;24.08;100.00;98352.02;106063;1253;61675;-76
2023/07/02 03:11:01;;;;;;;;;;;;;;;24.02;100.00;98347.89;105814;1253;61330;-75
2023/07/02 03:13:29;;;;;;;;;;;;;;;24.00;100.00;98347.23;109406;1252;74483;-74
2023/07/02 03:15:56;;;;;;;;;;;;;;;24.12;100.00;98346.11;108909;1254;67114;-78
2023/07/02 03:18:23;;;;;;;;;;;;;;;24.23;100.00;98346.72;105777;1255;72625;-75
2023/07/02 03:20:51;;;;;;;;;;;;;;;24.23;100.00;98348.83;105784;1260;61119;-77
2023/07/02 03:23:18;;;;;;;;;;;;;;;24.29;100.00;98349.52;105806;1255;61283;-76
2023/07/02 03:25:46;;;;;;;;;;;;;;;24.42;100.00;98353.83;105732;1254;74452;-75
2023/07/02 03:28:13;;;;;;;;;;;;;;;24.43;100.00;98352.90;105789;1260;68091;-75
2023/07/02 03:30:40;;;;;;;;;;;;;;;24.29;100.00;98355.09;105774;1256;72317;-74
2023/07/02 03:33:08;;;;;;;;;;;;;;;24.02;100.00;98349.60;105765;1254;61420;-76
2023/07/02 03:35:36;;;;;;;;;;;;;;;24.30;100.00;98348.38;105787;1257;61167;-75
2023/07/02 03:38:06;;;;;;;;;;;;;;;24.36;100.00;98357.44;105732;1260;74456;-75
2023/07/02 03:40:34;;;;;;;;;;;;;;;24.47;100.00;98361.50;105818;1254;68820;-75
2023/07/02 03:43:01;;;;;;;;;;;;;;;24.59;100.00;98363.52;105775;1256;72566;-76
2023/07/02 03:45:29;;;;;;;;;;;;;;;24.83;100.00;98360.93;105765;1255;61482;-77
2023/07/02 03:47:56;;;;;;;;;;;;;;;24.76;100.00;98363.29;105829;1252;61858;-76
2023/07/02 03:50:24;;;;;;;;;;;;;;;24.70;100.00;98363.63;105855;1252;73281;-77
2023/07/02 03:52:51;;;;;;;;;;;;;;;24.89;100.00;98362.15;105820;1260;66779;-75
2023/07/02 03:55:19;;;;;;;;;;;;;;;24.95;100.00;98365.52;105873;1253;71978;-76
2023/07/02 03:57:46;;;;;;;;;;;;;;;25.02;100.00;98366.03;105839;1253;61788;-77
2023/07/02 04:00:14;;;;;;;;;;;;;;;25.16;100.00;98364.36;105867;1257;61147;-77
2023/07/02 04:02:41;;;;;;;;;;;;;;;25.44;100.00;98369.30;105822;1253;74488;-76
2023/07/02 04:05:09;;;;;;;;;;;;;;;25.43;100.00;98366.08;105849;1252;68268;-77
2023/07/02 04:07:36;;;;;;;;;;;;;;;25.35;100.00;98362.48;105885;1257;72592;-77
2023/07/02 04:10:04;;;;;;;;;;;;;;;25.28;100.00;98362.52;105856;1253;61529;-76
2023/07/02 04:12:31;;;;;;;;;;;;;;;25.58;100.00;98362.64;105886;1253;61169;-77
2023/07/02 04:14:58;;;;;;;;;;;;;;;25.82;100.00;98367.66;105852;1253;74508;-76
2023/07/02 04:17:26;;;;;;;;;;;;;;;26.01;100.00;98368.40;105868;1253;68256;-77
2023/07/02 04:19:54;;;;;;;;;;;;;;;26.13;100.00;98371.20;106058;1253;71409;-78
2023/07/02 04:22:21;;;;;;;;;;;;;;;26.30;100.00;98372.69;105891;1257;61221;-77
2023/07/02 04:24:49;;;;;;;;;;;;;;;26.36;100.00;98369.09;105835;1258;61248;-76
2023/07/02 04:27:19;;;;;;;;;;;;;;;26.43;100.00;98369.74;105886;1258;74519;-78
2023/07/02 04:30:08;;;;;;;;;;;;;;;26.37;100.00;98365.79;106112;1256;68495;-77
2023/07/02 04:32:41;;;;;;;;;;;;;;;26.55;100.00;98364.85;105849;1253;72587;-77
2023/07/02 04:35:09;;;;;;;;;;;;;;;26.90;100.00;98365.55;106010;1252;62236;-78
2023/07/02 04:37:36;;;;;;;;;;;;;;;26.93;100.00;98361.92;106014;1253;61384;-82
2023/07/02 04:40:09;;;;;;;;;;;;;;;26.89;100.00;98359.55;105861;1257;74593;-77
2023/07/02 04:42:37;;;;;;;;;;;;;;;26.60;100.00;98357.69;105760;1253;68733;-78
2023/07/02 04:45:05;;;;;;;;;;;;;;;26.35;100.00;98358.55;105929;1253;72480;-79
2023/07/02 04:47:32;;;;;;;;;;;;;;;26.33;100.00;98357.21;105834;1257;61254;-79
2023/07/02 04:50:00;;;;;;;;;;;;;;;26.70;100.00;98359.77;105984;1256;62272;-79
2023/07/02 04:52:27;;;;;;;;;;;;;;;26.92;100.00;98357.91;105845;1253;74844;-77
2023/07/02 04:54:55;;;;;;;;;;;;;;;27.34;100.00;98360.77;106011;1256;67262;-79
2023/07/02 04:57:23;;;;;;;;;;;;;;;27.79;97.22;98361.79;105861;1258;72552;-80
2023/07/02 04:59:50;;;;;;;;;;;;;;;28.36;92.34;98364.04;106003;1256;61465;-83
2023/07/02 05:02:18;;;;;;;;;;;;;;;28.63;88.85;98363.14;106086;1253;61161;-81
2023/07/02 05:04:45;;;;;;;;;;;;;;;29.04;83.84;98364.77;106164;1258;74515;-80
2023/07/02 05:07:12;;;;;;;;;;;;;;;29.72;77.69;98370.95;106005;1253;68460;-80
2023/07/02 05:09:40;;;;;;;;;;;;;;;30.29;70.64;98376.02;106011;1256;71955;-79
2023/07/02 05:12:08;;;;;;;;;;;;;;;30.51;67.80;98377.40;106069;1253;61548;-81
2023/07/02 05:14:35;;;;;;;;;;;;;;;30.66;64.43;98377.27;105976;1253;61301;-82
2023/07/02 05:17:03;;;;;;;;;;;;;;;30.80;61.67;98378.27;105922;1253;152525;-82
2023/07/02 05:19:30;;;;;;;;;;;;;;;30.91;58.82;98380.31;105937;1254;68639;-84
2023/07/02 05:21:58;;;;;;;;;;;;;;;31.27;57.76;98381.98;106031;1256;63720;-83
2023/07/02 05:24:25;;;;;;;;;;;;;;;31.24;57.01;98382.20;105912;1254;61330;-85
2023/07/02 05:26:53;;;;;;;;;;;;;;;31.55;53.77;98387.05;105954;1253;61350;-83
2023/07/02 05:29:20;;;;;;;;;;;;;;;32.16;50.89;98384.91;105942;1253;65620;-83
2023/07/02 05:31:47;;;;;;;;;;;;;;;32.10;50.84;98384.85;105966;1253;61296;-81
2023/07/02 05:34:15;;;;;;;;;;;;;;;31.75;52.13;98384.58;105989;1254;62450;-81
2023/07/02 05:36:43;;;;;;;;;;;;;;;31.51;52.45;98390.07;105932;1257;61878;-83
2023/07/02 05:39:10;;;;;;;;;;;;;;;31.41;52.50;98387.86;105977;1256;61125;-84
2023/07/02 05:41:37;;;;;;;;;;;;;;;31.59;51.69;98388.34;105965;1253;65693;-81
2023/07/02 05:44:05;;;;;;;;;;;;;;;31.66;50.09;98382.60;105963;1253;61328;-86
2023/07/02 05:46:32;;;;;;;;;;;;;;;31.69;51.21;98383.66;105987;1253;63644;-80
2023/07/02 05:49:00;;;;;;;;;;;;;;;31.84;50.42;98387.34;106218;1257;61377;-84
2023/07/02 05:51:27;;;;;;;;;;;;;;;31.27;51.55;98386.34;106290;1253;61148;-80
2023/07/02 05:53:55;;;;;;;;;;;;;;;31.00;53.43;98380.84;106217;1258;65664;-83
2023/07/02 05:56:22;;;;;;;;;;;;;;;31.00;54.00;98385.12;106087;1253;61268;-79
2023/07/02 05:58:50;;;;;;;;;;;;;;;31.11;53.67;98388.65;105877;1254;62466;-79
2023/07/02 06:01:17;;;;;;;;;;;;;;;31.29;52.20;98390.56;105965;1253;61327;-84
2023/07/02 06:03:45;;;;;;;;;;;;;;;31.54;51.65;98388.35;106626;1257;62232;-83
2023/07/02 06:06:13;;;;;;;;;;;;;;;31.90;50.80;98389.84;106592;1257;65613;-83
2023/07/02 06:08:41;;;;;;;;;;;;;;;32.13;49.41;98387.75;106239;1254;61141;-83
2023/07/02 06:11:09;;;;;;;;;;;;;;;32.38;49.25;98388.27;106263;1253;63649;-81
2023/07/02 06:13:36;;;;;;;;;;;;;;;32.92;48.45;98391.69;106052;1253;61235;-85
2023/07/02 06:16:04;;;;;;;;;;;;;;;33.45;46.12;98394.08;106466;1255;61243;-83
2023/07/02 06:18:31;;;;;;;;;;;;;;;33.48;44.10;98390.84;106307;1253;64598;-83
2023/07/02 06:21:00;;;;;;;;;;;;;;;32.62;45.18;98387.21;106643;1253;61328;-78
2023/07/02 06:23:39;;;;;;;;;;;;;;;32.39;45.54;98384.67;108843;1253;62508;-81
2023/07/02 06:26:09;;;;;;;;;;;;;;;32.59;45.87;98382.20;109206;1253;59027;-82
2023/07/02 06:28:38;;;;;;;;;;;;;;;32.77;45.36;98383.46;106665;1253;61430;-83
2023/07/02 06:31:05;;;;;;;;;;;;;;;32.81;44.94;98380.12;106283;1253;66056;-81
2023/07/02 06:33:33;;;;;;;;;;;;;;;32.37;45.45;98375.13;106232;1257;61155;-86
2023/07/02 06:36:00;;;;;;;;;;;;;;;32.28;46.09;98372.43;106781;1253;62445;-80
2023/07/02 06:38:28;;;;;;;;;;;;;;;32.19;45.96;98371.45;106210;1253;61216;-79
2023/07/02 06:40:59;;;;;;;;;;;;;;;32.32;45.89;98369.59;106217;1253;61235;-79
2023/07/02 06:43:27;;;;;;;;;;;;;;;32.49;45.73;98368.29;106053;1253;64861;-80
2023/07/02 06:45:54;;;;;;;;;;;;;;;29.61;55.91;98354.15;105971;1253;68459;-78
2023/07/02 06:48:22;;;;;;;;;;;;;;;29.07;58.26;98352.27;105846;1255;72638;-79
2023/07/02 06:50:49;;;;;;;;;;;;;;;29.08;57.40;98346.82;105688;1253;61170;-78
2023/07/02 06:53:17;;;;;;;;;;;;;;;29.09;55.39;98348.52;105850;1253;61417;-80
2023/07/02 06:55:44;;;;;;;;;;;;;;;30.64;50.43;98354.20;105894;1259;74500;-82
2023/07/02 06:58:12;;;;;;;;;;;;;;;29.80;53.91;98347.38;105868;1253;68407;-80
2023/07/02 07:00:39;;;;;;;;;;;;;;;29.79;55.57;98345.21;105811;1253;72579;-83
2023/07/02 07:03:07;;;;;;;;;;;;;;;29.43;55.36;98348.09;105963;1253;61356;-80
2023/07/02 07:05:34;;;;;;;;;;;;;;;29.60;54.57;98344.21;106026;1252;61151;-78
2023/07/02 07:08:04;;;;;;;;;;;;;;;29.81;53.85;98347.64;105921;1257;74533;-83
2023/07/02 07:10:34;;;;;;;;;;;;;;;30.11;51.45;98347.52;105932;1253;68406;-82
2023/07/02 07:13:04;;;;;;;;;;;;;;;31.53;48.46;98352.69;105726;1253;73163;-77
2023/07/02 07:15:33;;;;;;;;;;;;;;;32.11;45.85;98357.89;105917;1253;61225;-78
2023/07/02 07:18:01;;;;;;;;;;;;;;;32.23;44.94;98357.17;105902;1253;61372;-77
2023/07/02 07:20:29;;;;;;;;;;;;;;;32.00;44.06;98357.23;105798;1253;65967;-80
2023/07/02 07:22:57;;;;;;;;;;;;;;;31.47;44.63;98352.01;105991;1253;61305;-81
2023/07/02 07:25:24;;;;;;;;;;;;;;;30.20;47.37;98345.28;105746;1253;71536;-83
2023/07/02 07:27:53;;;;;;;;;;;;;;;30.57;47.05;98347.02;105660;1255;61361;-81
2023/07/02 07:30:22;;;;;;;;;;;;;;;31.38;45.41;98347.59;105914;1257;61393;-78
2023/07/02 07:32:50;;;;;;;;;;;;;;;31.56;44.10;98347.67;105787;1259;65600;-84
2023/07/02 07:35:18;;;;;;;;;;;;;;;31.41;43.17;98345.39;106138;1251;68368;-79
2023/07/02 07:37:46;;;;;;;;;;;;;;;30.34;45.28;98339.36;106070;1254;71405;-79
2023/07/02 07:40:13;;;;;;;;;;;;;;;30.11;47.52;98336.94;106225;1251;61329;-78
2023/07/02 07:42:42;;;;;;;;;;;;;;;29.71;49.38;98330.59;106208;1253;61215;-78
2023/07/02 07:45:10;;;;;;;;;;;;;;;29.80;49.55;98330.20;106248;1257;74527;-84
2023/07/02 07:47:38;;;;;;;;;;;;;;;29.97;49.00;98327.37;106049;1259;67147;-78
2023/07/02 07:50:10;;;;;;;;;;;;;;;29.59;50.98;98322.90;105943;1259;72526;-78
2023/07/02 07:52:41;;;;;;;;;;;;;;;30.55;48.89;98322.67;106184;1251;61360;-79
2023/07/02 07:55:09;;;;;;;;;;;;;;;31.03;47.48;98324.48;106130;1251;61389;-81
2023/07/02 07:57:36;;;;;;;;;;;;;;;31.66;45.78;98327.59;106087;1251;66855;-77
2023/07/02 08:00:06;;;;;;;;;;;;;;;32.13;44.64;98327.94;105973;1251;61784;-78
2023/07/02 08:02:43;;;;;;;;;;;;;;;32.41;43.74;98332.20;106122;1251;64829;-77
2023/07/02 08:05:10;;;;;;;;;;;;;;;32.44;43.42;98334.12;106133;1251;61269;-84
2023/07/02 08:07:38;;;;;;;;;;;;;;;31.99;43.57;98331.02;106184;1256;61310;-80
2023/07/02 08:10:07;;;;;;;;;;;;;;;31.97;43.82;98333.60;106192;1259;65663;-85
2023/07/02 08:12:35;;;;;;;;;;;;;;;32.11;42.99;98332.69;106120;1257;61228;-80
2023/07/02 08:15:02;;;;;;;;;;;;;;;32.13;43.00;98334.93;106150;1251;63610;-76
2023/07/02 08:17:30;;;;;;;;;;;;;;;32.45;43.25;98338.20;106091;1257;61400;-79
2023/07/02 08:19:58;;;;;;;;;;;;;;;32.77;42.41;98337.73;106218;1251;61407;-78
2023/07/02 08:22:26;;;;;;;;;;;;;;;32.12;42.85;98337.70;106037;1254;66072;-75
2023/07/02 08:24:53;;;;;;;;;;;;;;;31.68;43.60;98331.21;105955;1258;71089;-79
2023/07/02 08:27:21;;;;;;;;;;;;;;;31.95;43.95;98329.80;105912;1253;63637;-76
2023/07/02 08:29:48;;;;;;;;;;;;;;;32.01;43.71;98329.77;105954;1253;61318;-78
2023/07/02 08:32:16;;;;;;;;;;;;;;;31.91;43.62;98335.12;105923;1253;61404;-79
2023/07/02 08:34:44;;;;;;;;;;;;;;;31.39;44.15;98332.12;105947;1253;65660;-75
2023/07/02 08:37:11;;;;;;;;;;;;;;;31.15;45.21;98329.37;105946;1259;61363;-75
2023/07/02 08:39:42;;;;;;;;;;;;;;;31.17;45.69;98327.09;105904;1253;63635;-77
2023/07/02 08:42:10;;;;;;;;;;;;;;;31.19;45.38;98333.10;105941;1253;61305;-79
2023/07/02 08:44:37;;;;;;;;;;;;;;;31.39;44.77;98332.75;105942;1253;61318;-80
2023/07/02 08:47:05;;;;;;;;;;;;;;;32.10;43.48;98332.47;105970;1257;73949;-77
2023/07/02 08:49:33;;;;;;;;;;;;;;;32.91;42.16;98338.35;105982;1257;61221;-77
2023/07/02 08:52:00;;;;;;;;;;;;;;;33.62;41.10;98342.64;105935;1257;62542;-79
2023/07/02 08:54:28;;;;;;;;;;;;;;;33.43;41.02;98344.31;106290;1253;61237;-75
2023/07/02 08:56:56;;;;;;;;;;;;;;;32.80;41.71;98337.77;106150;1253;61259;-78
2023/07/02 08:59:23;;;;;;;;;;;;;;;31.27;44.51;98328.06;105883;1253;74543;-75
2023/07/02 09:01:52;;;;;;;;;;;;;;;31.55;43.32;98328.12;105985;1254;67465;-75
2023/07/02 09:04:20;;;;;;;;;;;;;;;31.13;44.69;98333.17;105951;1253;72571;-75
2023/07/02 09:06:48;;;;;;;;;;;;;;;31.74;43.39;98334.17;106070;1253;61232;-78
2023/07/02 09:09:15;;;;;;;;;;;;;;;31.28;44.18;98332.46;105959;1253;61266;-76
2023/07/02 09:11:46;;;;;;;;;;;;;;;32.08;43.73;98333.17;106119;1253;64471;-77
2023/07/02 09:14:23;;;;;;;;;;;;;;;32.51;42.45;98336.19;106376;1256;61192;-77
2023/07/02 09:17:00;;;;;;;;;;;;;;;32.27;41.98;98336.06;106220;1253;63644;-77
2023/07/02 09:19:28;;;;;;;;;;;;;;;32.06;42.48;98333.35;106236;1253;61220;-78
2023/07/02 09:21:56;;;;;;;;;;;;;;;31.85;42.95;98335.17;106205;1253;61816;-76
2023/07/02 09:24:24;;;;;;;;;;;;;;;31.71;43.61;98334.64;106162;1255;65894;-79
2023/07/02 09:26:55;;;;;;;;;;;;;;;32.11;43.14;98333.86;106400;1253;61353;-79
2023/07/02 09:29:28;;;;;;;;;;;;;;;32.51;42.63;98330.41;106387;1257;62511;-79
2023/07/02 09:31:56;;;;;;;;;;;;;;;33.01;42.17;98328.44;107783;1252;61441;-79
2023/07/02 09:34:27;;;;;;;;;;;;;;;32.92;41.55;98326.45;109285;1253;59381;-81
2023/07/02 09:36:55;;;;;;;;;;;;;;;32.55;41.33;98326.48;106748;1253;64447;-80
2023/07/02 09:39:33;;;;;;;;;;;;;;;32.43;41.26;98329.05;105931;1253;61381;-80
2023/07/02 09:42:01;;;;;;;;;;;;;;;30.77;44.62;98318.77;105967;1253;72606;-80
2023/07/02 09:44:29;;;;;;;;;;;;;;;30.76;45.61;98317.95;106037;1256;61341;-78
2023/07/02 09:47:02;;;;;;;;;;;;;;;30.31;46.83;98314.29;105990;1253;61221;-80
2023/07/02 09:49:36;;;;;;;;;;;;;;;30.26;47.77;98310.96;106006;1254;73565;-78
2023/07/02 09:52:05;;;;;;;;;;;;;;;30.28;47.63;98311.74;106049;1259;67847;-81
2023/07/02 09:54:32;;;;;;;;;;;;;;;30.48;47.62;98312.71;105967;1253;71158;-80
2023/07/02 09:57:00;;;;;;;;;;;;;;;30.63;47.70;98311.09;105967;1253;61207;-77
2023/07/02 09:59:27;;;;;;;;;;;;;;;30.78;47.51;98311.98;105981;1258;61387;-80
2023/07/02 10:01:55;;;;;;;;;;;;;;;30.83;47.03;98312.85;106164;1253;74618;-79
2023/07/02 10:04:23;;;;;;;;;;;;;;;31.28;45.45;98302.39;105894;1253;68258;-77
2023/07/02 10:06:55;;;;;;;;;;;;;;;31.12;45.63;98300.02;105911;1253;63616;-80
2023/07/02 10:09:36;;;;;;;;;;;;;;;31.24;44.89;98300.95;106240;1253;61329;-78
2023/07/02 10:12:24;;;;;;;;;;;;;;;31.09;44.83;98296.13;106249;1254;61430;-77
2023/07/02 10:14:52;;;;;;;;;;;;;;;31.15;45.57;98298.33;106376;1253;64435;-76
2023/07/02 10:17:33;;;;;;;;;;;;;;;30.94;45.98;98299.55;106370;1257;67329;-78
2023/07/02 10:20:12;;;;;;;;;;;;;;;30.64;45.56;98299.77;106020;1259;72603;-76
2023/07/02 10:22:47;;;;;;;;;;;;;;;29.82;46.40;98294.59;105597;1265;62304;-78
2023/07/02 10:25:28;;;;;;;;;;;;;;;29.07;49.84;98290.39;105974;1257;61340;-79
2023/07/02 10:28:02;;;;;;;;;;;;;;;29.30;50.64;98295.14;106020;1253;74674;-76
2023/07/02 10:30:33;;;;;;;;;;;;;;;28.91;52.93;98293.11;105983;1258;68636;-77
2023/07/02 10:33:27;;;;;;;;;;;;;;;28.78;55.39;98289.76;106051;1253;72660;-76
2023/07/02 10:35:54;;;;;;;;;;;;;;;28.70;54.56;98284.66;105341;1261;61356;-83
2023/07/02 10:38:26;;;;;;;;;;;;;;;28.93;54.02;98286.70;105491;1265;61237;-79
2023/07/02 10:40:57;;;;;;;;;;;;;;;28.73;54.89;98286.86;105083;1260;73952;-79
2023/07/02 10:43:45;;;;;;;;;;;;;;;28.79;56.07;98280.20;105295;1260;68268;-77
2023/07/02 10:46:18;;;;;;;;;;;;;;;29.74;52.03;98286.77;105341;1262;72680;-77
2023/07/02 10:48:52;;;;;;;;;;;;;;;30.27;47.28;98286.07;105313;1267;61296;-77
2023/07/02 10:51:21;;;;;;;;;;;;;;;30.71;47.95;98284.93;105349;1264;61181;-78
2023/07/02 10:53:58;;;;;;;;;;;;;;;30.97;44.72;98285.98;105318;1266;73422;-76
2023/07/02 10:56:27;;;;;;;;;;;;;;;30.88;44.51;98284.52;105344;1268;61334;-81
2023/07/02 10:58:55;;;;;;;;;;;;;;;30.89;44.82;98284.83;105437;1267;72742;-78
2023/07/02 11:01:29;;;;;;;;;;;;;;;30.92;44.24;98285.50;105287;1268;61424;-79
2023/07/02 11:03:57;;;;;;;;;;;;;;;30.98;42.95;98289.74;105415;1268;61160;-82
2023/07/02 11:06:25;;;;;;;;;;;;;;;31.31;40.92;98290.52;105416;1263;74582;-79
2023/07/02 11:08:54;;;;;;;;;;;;;;;31.16;39.25;98291.36;105590;1263;68335;-81
2023/07/02 11:11:23;;;;;;;;;;;;;;;30.70;39.33;98286.63;105541;1263;72608;-77
2023/07/02 11:14:12;;;;;;;;;;;;;;;30.97;39.60;98292.06;105729;1259;61154;-81
2023/07/02 11:17:02;;;;;;;;;;;;;;;30.99;39.87;98289.65;105731;1263;61234;-78
2023/07/02 11:19:30;;;;;;;;;;;;;;;30.96;40.09;98290.95;105735;1260;74428;-78
2023/07/02 11:21:57;;;;;;;;;;;;;;;31.08;40.60;98283.80;105628;1265;67531;-75
2023/07/02 11:24:35;;;;;;;;;;;;;;;31.48;40.08;98278.59;105494;1260;70843;-78
2023/07/02 11:27:05;;;;;;;;;;;;;;;31.39;39.94;98278.13;105563;1263;61566;-81
2023/07/02 11:29:33;;;;;;;;;;;;;;;31.39;40.10;98271.54;105611;1263;61160;-79
2023/07/02 11:32:07;;;;;;;;;;;;;;;31.51;39.54;98265.36;105560;1263;74608;-80
2023/07/02 11:34:35;;;;;;;;;;;;;;;31.40;39.94;98257.48;105481;1263;67292;-81
2023/07/02 11:37:03;;;;;;;;;;;;;;;31.44;40.02;98251.09;105574;1264;71428;-79
2023/07/02 11:39:31;;;;;;;;;;;;;;;31.32;39.84;98247.89;105504;1263;61449;-75
2023/07/02 11:41:58;;;;;;;;;;;;;;;31.59;39.52;98251.83;105375;1260;61273;-77
2023/07/02 11:44:26;;;;;;;;;;;;;;;32.24;39.15;98251.16;105340;1265;65884;-78
2023/07/02 11:46:53;;;;;;;;;;;;;;;32.29;38.27;98253.60;105406;1264;67160;-76
2023/07/02 11:49:21;;;;;;;;;;;;;;;32.20;38.54;98252.23;105399;1259;63770;-80
2023/07/02 11:51:48;;;;;;;;;;;;;;;32.29;38.88;98252.48;105658;1256;61552;-76
2023/07/02 11:54:17;;;;;;;;;;;;;;;32.21;38.77;98252.20;105848;1260;61226;-76
2023/07/02 11:56:45;;;;;;;;;;;;;;;32.61;38.30;98251.37;105676;1260;64446;-84
2023/07/02 11:59:12;;;;;;;;;;;;;;;32.38;38.44;98252.94;105715;1262;61304;-76
2023/07/02 12:01:40;;;;;;;;;;;;;;;32.25;38.52;98250.45;105746;1261;71745;-79
2023/07/02 12:04:11;;;;;;;;;;;;;;;32.25;38.58;98247.66;105875;1256;61393;-77
2023/07/02 12:06:39;;;;;;;;;;;;;;;32.12;38.26;98244.20;105492;1257;61344;-76
2023/07/02 12:09:07;;;;;;;;;;;;;;;31.01;39.18;98239.98;105769;1260;73398;-79
2023/07/02 12:11:34;;;;;;;;;;;;;;;31.35;38.70;98244.94;105930;1260;67327;-83
2023/07/02 12:14:02;;;;;;;;;;;;;;;30.45;39.71;98239.77;105982;1254;72567;-75
2023/07/02 12:16:29;;;;;;;;;;;;;;;31.61;38.45;98242.02;105910;1259;61234;-85
2023/07/02 12:18:57;;;;;;;;;;;;;;;32.08;37.46;98233.80;105801;1257;61663;-79
2023/07/02 12:21:26;;;;;;;;;;;;;;;30.61;39.69;98228.05;105908;1254;73376;-82
2023/07/02 12:23:54;;;;;;;;;;;;;;;31.49;38.34;98228.01;105962;1257;67292;-78
2023/07/02 12:26:21;;;;;;;;;;;;;;;31.65;38.38;98228.95;105900;1253;72631;-77
2023/07/02 12:28:49;;;;;;;;;;;;;;;32.16;38.40;98225.83;105934;1255;61356;-78
2023/07/02 12:31:16;;;;;;;;;;;;;;;32.33;37.60;98223.94;105942;1254;61304;-76
2023/07/02 12:33:43;;;;;;;;;;;;;;;32.58;37.41;98223.02;105941;1256;64459;-79
2023/07/02 12:36:12;;;;;;;;;;;;;;;32.68;37.17;98216.20;105918;1257;61266;-78
2023/07/02 12:38:39;;;;;;;;;;;;;;;32.63;37.40;98215.14;106001;1253;63641;-78
2023/07/02 12:41:07;;;;;;;;;;;;;;;32.90;37.19;98217.08;108256;1253;61289;-83